createdAt,value
2023-05-05T00:00:11.104Z,954.00
2023-05-05T00:01:10.217Z,956.00
2023-05-05T00:02:10.152Z,955.00
2023-05-05T00:03:11.266Z,957.00
2023-05-05T00:04:11.292Z,956.00
2023-05-05T00:05:11.260Z,958.00
2023-05-05T00:06:10.262Z,958.00
2023-05-05T00:07:10.262Z,959.00
2023-05-05T00:08:11.282Z,956.00
2023-05-05T00:09:10.212Z,958.00
2023-05-05T00:10:10.441Z,959.00
2023-05-05T00:11:10.240Z,957.00
2023-05-05T00:12:11.347Z,958.00
2023-05-05T00:13:10.452Z,957.00
2023-05-05T00:14:10.430Z,956.00
2023-05-05T00:15:10.379Z,955.00
2023-05-05T00:16:10.379Z,952.00
2023-05-05T00:17:10.471Z,947.00
2023-05-05T00:18:10.428Z,950.00
2023-05-05T00:19:11.462Z,950.00
2023-05-05T00:20:10.597Z,950.00
2023-05-05T00:21:10.462Z,950.00
2023-05-05T00:22:10.444Z,953.00
2023-05-05T00:23:10.494Z,956.00
2023-05-05T00:24:10.522Z,959.00
2023-05-05T00:25:10.457Z,958.00
2023-05-05T00:26:10.502Z,952.00
2023-05-05T00:27:11.525Z,950.00
2023-05-05T00:28:11.592Z,952.00
2023-05-05T00:29:10.494Z,955.00
2023-05-05T00:30:11.515Z,955.00
2023-05-05T00:31:10.623Z,955.00
2023-05-05T00:32:10.544Z,951.00
2023-05-05T00:33:10.565Z,952.00
2023-05-05T00:34:11.713Z,951.00
2023-05-05T00:35:11.581Z,952.00
2023-05-05T00:36:10.595Z,958.00
2023-05-05T00:37:10.656Z,960.00
2023-05-05T00:38:11.616Z,959.00
2023-05-05T00:39:10.659Z,961.00
2023-05-05T00:40:10.747Z,960.00
2023-05-05T00:41:11.759Z,958.00
2023-05-05T00:42:10.777Z,953.00
2023-05-05T00:43:10.790Z,950.00
2023-05-05T00:44:10.862Z,951.00
2023-05-05T00:45:11.871Z,953.00
2023-05-05T00:46:10.801Z,953.00
2023-05-05T00:47:10.811Z,950.00
2023-05-05T00:48:11.980Z,952.00
2023-05-05T00:49:10.971Z,956.00
2023-05-05T00:50:10.920Z,955.00
2023-05-05T00:51:11.980Z,957.00
2023-05-05T00:52:11.062Z,963.00
2023-05-05T00:53:12.139Z,956.00
2023-05-05T00:54:11.189Z,953.00
2023-05-05T00:55:11.123Z,955.00
2023-05-05T00:56:11.232Z,953.00
2023-05-05T00:57:11.294Z,957.00
2023-05-05T00:58:11.317Z,956.00
2023-05-05T00:59:12.247Z,955.00
2023-05-05T01:00:12.367Z,950.00
2023-05-05T01:01:12.371Z,952.00
2023-05-05T01:02:12.353Z,960.00
2023-05-05T01:03:12.494Z,960.00
2023-05-05T01:04:11.547Z,964.00
2023-05-05T01:05:11.563Z,963.00
2023-05-05T01:06:11.547Z,965.00
2023-05-05T01:07:11.518Z,964.00
2023-05-05T01:08:11.640Z,963.00
2023-05-05T01:09:11.687Z,965.00
2023-05-05T01:10:19.620Z,961.00
2023-05-05T01:11:12.649Z,961.00
2023-05-05T01:12:12.631Z,964.00
2023-05-05T01:13:11.637Z,966.00
2023-05-05T01:14:12.709Z,967.00
2023-05-05T01:15:12.645Z,967.00
2023-05-05T01:16:11.647Z,959.00
2023-05-05T01:17:12.618Z,957.00
2023-05-05T01:18:11.551Z,959.00
2023-05-05T01:19:12.575Z,957.00
2023-05-05T01:20:12.643Z,955.00
2023-05-05T01:21:11.562Z,956.00
2023-05-05T01:22:11.616Z,957.00
2023-05-05T01:23:11.518Z,958.00
2023-05-05T01:24:12.614Z,964.00
2023-05-05T01:25:11.627Z,964.00
2023-05-05T01:26:11.502Z,962.00
2023-05-05T01:27:11.517Z,961.00
2023-05-05T01:28:12.524Z,957.00
2023-05-05T01:29:12.586Z,952.00
2023-05-05T01:30:11.535Z,951.00
2023-05-05T01:31:12.554Z,954.00
2023-05-05T01:32:12.581Z,958.00
2023-05-05T01:33:12.560Z,953.00
2023-05-05T01:34:11.437Z,957.00
2023-05-05T01:35:12.502Z,965.00
2023-05-05T01:36:11.507Z,970.00
2023-05-05T01:37:11.466Z,963.00
2023-05-05T01:38:12.410Z,964.00
2023-05-05T01:39:12.422Z,969.00
2023-05-05T01:40:11.504Z,967.00
2023-05-05T01:41:11.439Z,962.00
2023-05-05T01:42:11.447Z,964.00
2023-05-05T01:43:11.378Z,963.00
2023-05-05T01:44:12.419Z,959.00
2023-05-05T01:45:11.514Z,957.00
2023-05-05T01:46:11.570Z,960.00
2023-05-05T01:47:11.660Z,962.00
2023-05-05T01:48:12.622Z,957.00
2023-05-05T01:49:11.706Z,959.00
2023-05-05T01:50:11.752Z,963.00
2023-05-05T01:51:12.727Z,959.00
2023-05-05T01:52:11.801Z,960.00
2023-05-05T01:53:11.927Z,954.00
2023-05-05T01:54:12.876Z,956.00
2023-05-05T01:55:11.960Z,955.00
2023-05-05T01:56:11.849Z,959.00
2023-05-05T01:57:12.926Z,959.00
2023-05-05T01:58:11.999Z,967.00
2023-05-05T01:59:12.974Z,966.00
2023-05-05T02:00:13.040Z,968.00
2023-05-05T02:01:12.057Z,964.00
2023-05-05T02:02:12.142Z,964.00
2023-05-05T02:03:13.155Z,963.00
2023-05-05T02:04:13.070Z,964.00
2023-05-05T02:05:13.168Z,960.00
2023-05-05T02:06:12.133Z,957.00
2023-05-05T02:07:12.262Z,957.00
2023-05-05T02:08:12.209Z,962.00
2023-05-05T02:09:13.329Z,965.00
2023-05-05T02:10:12.367Z,960.00
2023-05-05T02:11:13.301Z,967.00
2023-05-05T02:12:12.336Z,969.00
2023-05-05T02:13:12.586Z,964.00
2023-05-05T02:14:12.500Z,969.00
2023-05-05T02:15:12.483Z,973.00
2023-05-05T02:16:12.553Z,969.00
2023-05-05T02:17:12.634Z,971.00
2023-05-05T02:18:13.678Z,972.00
2023-05-05T02:19:13.731Z,967.00
2023-05-05T02:20:13.735Z,966.00
2023-05-05T02:21:12.693Z,964.00
2023-05-05T02:22:13.820Z,964.00
2023-05-05T02:23:13.847Z,962.00
2023-05-05T02:24:12.800Z,964.00
2023-05-05T02:25:13.964Z,964.00
2023-05-05T02:26:13.951Z,967.00
2023-05-05T02:27:13.013Z,962.00
2023-05-05T02:28:13.021Z,959.00
2023-05-05T02:29:13.045Z,959.00
2023-05-05T02:30:13.129Z,957.00
2023-05-05T02:31:13.155Z,956.00
2023-05-05T02:32:13.175Z,952.00
2023-05-05T02:33:13.231Z,953.00
2023-05-05T02:34:14.216Z,952.00
2023-05-05T02:35:13.216Z,953.00
2023-05-05T02:36:14.253Z,956.00
2023-05-05T02:37:14.369Z,960.00
2023-05-05T02:38:14.407Z,960.00
2023-05-05T02:39:14.402Z,958.00
2023-05-05T02:40:14.424Z,957.00
2023-05-05T02:41:14.483Z,960.00
2023-05-05T02:42:13.496Z,954.00
2023-05-05T02:43:13.617Z,952.00
2023-05-05T02:44:13.620Z,956.00
2023-05-05T02:45:13.638Z,950.00
2023-05-05T02:46:13.769Z,953.00
2023-05-05T02:47:14.751Z,952.00
2023-05-05T02:48:13.801Z,953.00
2023-05-05T02:49:13.764Z,955.00
2023-05-05T02:50:14.900Z,958.00
2023-05-05T02:51:14.844Z,956.00
2023-05-05T02:52:13.890Z,955.00
2023-05-05T02:53:13.999Z,959.00
2023-05-05T02:54:13.999Z,959.00
2023-05-05T02:55:15.005Z,959.00
2023-05-05T02:56:15.108Z,958.00
2023-05-05T02:57:14.219Z,958.00
2023-05-05T02:58:15.121Z,956.00
2023-05-05T02:59:16.157Z,955.00
2023-05-05T03:00:14.326Z,953.00
2023-05-05T03:01:14.400Z,956.00
2023-05-05T03:02:14.425Z,953.00
2023-05-05T03:03:14.566Z,952.00
2023-05-05T03:04:15.552Z,951.00
2023-05-05T03:05:15.637Z,952.00
2023-05-05T03:06:14.655Z,950.00
2023-05-05T03:07:14.676Z,950.00
2023-05-05T03:08:14.689Z,952.00
2023-05-05T03:09:15.809Z,950.00
2023-05-05T03:10:14.832Z,949.00
2023-05-05T03:11:15.916Z,952.00
2023-05-05T03:12:14.871Z,949.00
2023-05-05T03:13:16.011Z,950.00
2023-05-05T03:14:15.097Z,947.00
2023-05-05T03:15:15.126Z,947.00
2023-05-05T03:16:15.139Z,950.00
2023-05-05T03:17:15.144Z,950.00
2023-05-05T03:18:16.309Z,950.00
2023-05-05T03:19:15.307Z,951.00
2023-05-05T03:20:16.334Z,948.00
2023-05-05T03:21:15.496Z,945.00
2023-05-05T03:22:15.498Z,947.00
2023-05-05T03:23:16.519Z,950.00
2023-05-05T03:24:16.650Z,950.00
2023-05-05T03:25:16.708Z,951.00
2023-05-05T03:26:15.701Z,949.00
2023-05-05T03:27:15.800Z,951.00
2023-05-05T03:28:15.879Z,951.00
2023-05-05T03:29:16.045Z,949.00
2023-05-05T03:30:15.910Z,948.00
2023-05-05T03:31:17.020Z,950.00
2023-05-05T03:32:17.145Z,947.00
2023-05-05T03:33:16.213Z,944.00
2023-05-05T03:34:16.271Z,946.00
2023-05-05T03:35:17.245Z,945.00
2023-05-05T03:36:16.341Z,943.00
2023-05-05T03:37:17.358Z,942.00
2023-05-05T03:38:17.394Z,946.00
2023-05-05T03:39:16.513Z,947.00
2023-05-05T03:40:17.515Z,948.00
2023-05-05T03:41:17.579Z,950.00
2023-05-05T03:42:17.653Z,949.00
2023-05-05T03:43:16.757Z,948.00
2023-05-05T03:44:17.739Z,946.00
2023-05-05T03:45:17.892Z,946.00
2023-05-05T03:46:18.036Z,946.00
2023-05-05T03:47:16.928Z,942.00
2023-05-05T03:48:17.010Z,945.00
2023-05-05T03:49:17.050Z,945.00
2023-05-05T03:50:17.019Z,943.00
2023-05-05T03:51:18.232Z,943.00
2023-05-05T03:52:17.189Z,943.00
2023-05-05T03:53:17.287Z,946.00
2023-05-05T03:54:18.328Z,947.00
2023-05-05T03:55:17.294Z,948.00
2023-05-05T03:56:18.350Z,949.00
2023-05-05T03:57:18.458Z,948.00
2023-05-05T03:58:17.453Z,950.00
2023-05-05T03:59:18.526Z,949.00
2023-05-05T04:00:18.641Z,945.00
2023-05-05T04:01:17.670Z,946.00
2023-05-05T04:02:19.070Z,950.00
2023-05-05T04:03:18.018Z,951.00
2023-05-05T04:04:17.937Z,947.00
2023-05-05T04:05:17.890Z,946.00
2023-05-05T04:06:17.949Z,945.00
2023-05-05T04:07:18.014Z,943.00
2023-05-05T04:08:18.060Z,944.00
2023-05-05T04:09:19.050Z,943.00
2023-05-05T04:10:19.144Z,939.00
2023-05-05T04:11:19.260Z,939.00
2023-05-05T04:12:18.288Z,945.00
2023-05-05T04:13:18.381Z,945.00
2023-05-05T04:14:19.384Z,942.00
2023-05-05T04:15:18.392Z,940.00
2023-05-05T04:16:19.630Z,940.00
2023-05-05T04:17:18.656Z,943.00
2023-05-05T04:18:18.606Z,938.00
2023-05-05T04:19:18.676Z,938.00
2023-05-05T04:20:18.679Z,941.00
2023-05-05T04:21:18.747Z,944.00
2023-05-05T04:22:18.882Z,943.00
2023-05-05T04:23:18.917Z,943.00
2023-05-05T04:24:19.982Z,939.00
2023-05-05T04:25:19.040Z,942.00
2023-05-05T04:26:20.057Z,942.00
2023-05-05T04:27:19.136Z,942.00
2023-05-05T04:28:21.786Z,943.00
2023-05-05T04:29:19.225Z,942.00
2023-05-05T04:30:20.183Z,943.00
2023-05-05T04:31:20.337Z,944.00
2023-05-05T04:32:20.217Z,945.00
2023-05-05T04:33:19.202Z,946.00
2023-05-05T04:34:19.191Z,942.00
2023-05-05T04:35:20.167Z,944.00
2023-05-05T04:36:20.188Z,942.00
2023-05-05T04:37:19.098Z,942.00
2023-05-05T04:38:19.210Z,942.00
2023-05-05T04:39:19.102Z,943.00
2023-05-05T04:40:20.099Z,941.00
2023-05-05T04:41:20.107Z,941.00
2023-05-05T04:42:20.073Z,941.00
2023-05-05T04:43:19.054Z,945.00
2023-05-05T04:44:20.092Z,945.00
2023-05-05T04:45:20.051Z,941.00
2023-05-05T04:46:20.489Z,941.00
2023-05-05T04:47:19.026Z,939.00
2023-05-05T04:48:19.124Z,939.00
2023-05-05T04:49:19.053Z,939.00
2023-05-05T04:50:20.102Z,940.00
2023-05-05T04:51:20.217Z,941.00
2023-05-05T04:52:19.271Z,938.00
2023-05-05T04:53:20.351Z,940.00
2023-05-05T04:54:20.369Z,939.00
2023-05-05T04:55:19.417Z,937.00
2023-05-05T04:56:19.521Z,938.00
2023-05-05T04:57:20.463Z,937.00
2023-05-05T04:58:20.540Z,936.00
2023-05-05T04:59:20.675Z,937.00
2023-05-05T05:00:19.663Z,938.00
2023-05-05T05:01:20.837Z,936.00
2023-05-05T05:02:19.937Z,931.00
2023-05-05T05:03:20.851Z,929.00
2023-05-05T05:04:20.899Z,931.00
2023-05-05T05:05:21.030Z,928.00
2023-05-05T05:06:20.096Z,930.00
2023-05-05T05:07:20.087Z,932.00
2023-05-05T05:08:20.182Z,934.00
2023-05-05T05:09:20.141Z,931.00
2023-05-05T05:10:21.227Z,931.00
2023-05-05T05:11:20.289Z,932.00
2023-05-05T05:12:21.337Z,932.00
2023-05-05T05:13:20.426Z,930.00
2023-05-05T05:14:20.378Z,935.00
2023-05-05T05:15:20.360Z,932.00
2023-05-05T05:16:20.445Z,935.00
2023-05-05T05:17:21.423Z,937.00
2023-05-05T05:18:20.395Z,940.00
2023-05-05T05:19:20.478Z,945.00
2023-05-05T05:20:21.478Z,941.00
2023-05-05T05:21:20.555Z,939.00
2023-05-05T05:22:20.685Z,939.00
2023-05-05T05:23:20.601Z,940.00
2023-05-05T05:24:20.540Z,937.00
2023-05-05T05:25:20.617Z,939.00
2023-05-05T05:26:20.650Z,940.00
2023-05-05T05:27:20.577Z,941.00
2023-05-05T05:28:20.636Z,942.00
2023-05-05T05:29:20.634Z,937.00
2023-05-05T05:30:20.652Z,938.00
2023-05-05T05:31:21.623Z,940.00
2023-05-05T05:32:20.849Z,940.00
2023-05-05T05:33:21.986Z,949.00
2023-05-05T05:34:21.873Z,952.00
2023-05-05T05:35:21.666Z,955.00
2023-05-05T05:36:21.574Z,959.00
2023-05-05T05:37:21.591Z,967.00
2023-05-05T05:38:21.866Z,970.00
2023-05-05T05:39:21.673Z,972.00
2023-05-05T05:40:21.617Z,973.00
2023-05-05T05:41:20.958Z,977.00
2023-05-05T05:42:21.769Z,986.00
2023-05-05T05:43:21.912Z,996.00
2023-05-05T05:44:22.049Z,1004.00
2023-05-05T05:45:20.719Z,1011.00
2023-05-05T05:46:20.665Z,1014.00
2023-05-05T05:47:20.588Z,1021.00
2023-05-05T05:48:20.605Z,1032.00
2023-05-05T05:49:22.430Z,1039.00
2023-05-05T05:50:21.080Z,1044.00
2023-05-05T05:51:21.761Z,1045.00
2023-05-05T05:52:20.743Z,1050.00
2023-05-05T05:53:20.927Z,1059.00
2023-05-05T05:54:22.164Z,1073.00
2023-05-05T05:55:21.038Z,1084.00
2023-05-05T05:56:20.905Z,1081.00
2023-05-05T05:57:21.404Z,1087.00
2023-05-05T05:58:21.145Z,1078.00
2023-05-05T05:59:20.907Z,1015.00
2023-05-05T06:00:22.496Z,1007.00
2023-05-05T06:01:21.333Z,996.00
2023-05-05T06:02:22.196Z,980.00
2023-05-05T06:03:22.404Z,968.00
2023-05-05T06:04:21.256Z,961.00
2023-05-05T06:05:21.263Z,957.00
2023-05-05T06:06:21.120Z,949.00
2023-05-05T06:07:21.148Z,945.00
2023-05-05T06:08:22.546Z,928.00
2023-05-05T06:09:21.951Z,913.00
2023-05-05T06:10:28.024Z,911.00
2023-05-05T06:11:21.919Z,908.00
2023-05-05T06:12:21.874Z,903.00
2023-05-05T06:13:22.664Z,898.00
2023-05-05T06:14:20.883Z,889.00
2023-05-05T06:15:20.815Z,886.00
2023-05-05T06:16:20.835Z,882.00
2023-05-05T06:17:20.854Z,884.00
2023-05-05T06:18:21.894Z,884.00
2023-05-05T06:19:20.807Z,882.00
2023-05-05T06:20:20.879Z,883.00
2023-05-05T06:21:21.827Z,881.00
2023-05-05T06:22:20.936Z,873.00
2023-05-05T06:23:21.969Z,880.00
2023-05-05T06:24:21.329Z,879.00
2023-05-05T06:25:21.104Z,868.00
2023-05-05T06:26:21.155Z,872.00
2023-05-05T06:27:21.221Z,875.00
2023-05-05T06:28:21.198Z,866.00
2023-05-05T06:29:21.330Z,862.00
2023-05-05T06:30:22.067Z,853.00
2023-05-05T06:31:21.529Z,850.00
2023-05-05T06:32:21.736Z,843.00
2023-05-05T06:33:22.751Z,842.00
2023-05-05T06:34:21.609Z,843.00
2023-05-05T06:35:21.597Z,841.00
2023-05-05T06:36:21.711Z,837.00
2023-05-05T06:37:21.722Z,838.00
2023-05-05T06:38:22.065Z,835.00
2023-05-05T06:39:22.831Z,831.00
2023-05-05T06:40:21.794Z,826.00
2023-05-05T06:41:22.898Z,818.00
2023-05-05T06:42:21.939Z,818.00
2023-05-05T06:43:22.050Z,822.00
2023-05-05T06:44:21.997Z,818.00
2023-05-05T06:45:23.090Z,815.00
2023-05-05T06:46:23.089Z,805.00
2023-05-05T06:47:23.188Z,803.00
2023-05-05T06:48:22.177Z,801.00
2023-05-05T06:49:22.127Z,799.00
2023-05-05T06:50:23.153Z,804.00
2023-05-05T06:51:22.231Z,805.00
2023-05-05T06:52:23.439Z,803.00
2023-05-05T06:53:22.218Z,812.00
2023-05-05T06:54:22.309Z,814.00
2023-05-05T06:55:22.350Z,819.00
2023-05-05T06:56:22.370Z,813.00
2023-05-05T06:57:24.033Z,782.00
2023-05-05T06:58:23.346Z,796.00
2023-05-05T06:59:23.493Z,802.00
2023-05-05T07:00:22.476Z,804.00
2023-05-05T07:01:22.509Z,798.00
2023-05-05T07:02:25.333Z,792.00
2023-05-05T07:03:22.510Z,791.00
2023-05-05T07:04:23.453Z,789.00
2023-05-05T07:05:23.492Z,788.00
2023-05-05T07:06:22.540Z,785.00
2023-05-05T07:07:22.505Z,779.00
2023-05-05T07:08:23.438Z,771.00
2023-05-05T07:09:22.427Z,777.00
2023-05-05T07:10:22.417Z,780.00
2023-05-05T07:11:22.446Z,778.00
2023-05-05T07:12:22.436Z,780.00
2023-05-05T07:13:22.487Z,782.00
2023-05-05T07:14:24.391Z,784.00
2023-05-05T07:15:28.739Z,784.00
2023-05-05T07:16:23.525Z,780.00
2023-05-05T07:17:22.435Z,781.00
2023-05-05T07:18:22.491Z,780.00
2023-05-05T07:19:23.540Z,779.00
2023-05-05T07:20:23.372Z,779.00
2023-05-05T07:21:22.340Z,776.00
2023-05-05T07:22:22.323Z,776.00
2023-05-05T07:23:22.318Z,775.00
2023-05-05T07:24:23.305Z,771.00
2023-05-05T07:25:22.348Z,769.00
2023-05-05T07:26:22.268Z,768.00
2023-05-05T07:27:23.275Z,767.00
2023-05-05T07:28:23.360Z,767.00
2023-05-05T07:29:23.457Z,766.00
2023-05-05T07:30:23.662Z,767.00
2023-05-05T07:31:23.490Z,762.00
2023-05-05T07:32:22.638Z,762.00
2023-05-05T07:33:23.591Z,763.00
2023-05-05T07:34:23.651Z,763.00
2023-05-05T07:35:23.758Z,758.00
2023-05-05T07:36:22.784Z,755.00
2023-05-05T07:37:22.859Z,757.00
2023-05-05T07:38:22.956Z,754.00
2023-05-05T07:39:22.995Z,748.00
2023-05-05T07:40:22.984Z,738.00
2023-05-05T07:41:23.048Z,731.00
2023-05-05T07:42:23.124Z,731.00
2023-05-05T07:43:23.194Z,732.00
2023-05-05T07:44:23.154Z,732.00
2023-05-05T07:45:23.212Z,731.00
2023-05-05T07:46:23.229Z,733.00
2023-05-05T07:47:23.246Z,740.00
2023-05-05T07:48:23.464Z,732.00
2023-05-05T07:49:23.387Z,734.00
2023-05-05T07:50:23.416Z,744.00
2023-05-05T07:51:23.736Z,760.00
2023-05-05T07:52:37.340Z,766.00
2023-05-05T07:53:25.452Z,780.00
2023-05-05T07:54:24.444Z,786.00
2023-05-05T07:55:24.486Z,808.00
2023-05-05T07:56:23.452Z,873.00
2023-05-05T07:57:23.477Z,948.00
2023-05-05T07:58:23.412Z,925.00
2023-05-05T07:59:24.488Z,926.00
2023-05-05T08:00:23.419Z,931.00
2023-05-05T08:01:23.490Z,942.00
2023-05-05T08:02:24.492Z,946.00
2023-05-05T08:03:23.522Z,955.00
2023-05-05T08:04:23.459Z,976.00
2023-05-05T08:05:23.354Z,1016.00
2023-05-05T08:06:23.398Z,1022.00
2023-05-05T08:07:23.403Z,1035.00
2023-05-05T08:08:23.333Z,1054.00
2023-05-05T08:09:23.398Z,1093.00
2023-05-05T08:10:24.376Z,1101.00
2023-05-05T08:11:23.319Z,1115.00
2023-05-05T08:12:24.353Z,1199.00
2023-05-05T08:13:24.336Z,1209.00
2023-05-05T08:14:23.363Z,1230.00
2023-05-05T08:15:24.482Z,1223.00
2023-05-05T08:16:23.561Z,1243.00
2023-05-05T08:17:23.637Z,1281.00
2023-05-05T08:18:23.555Z,1307.00
2023-05-05T08:19:29.202Z,1319.00
2023-05-05T08:20:24.557Z,1318.00
2023-05-05T08:21:23.563Z,1346.00
2023-05-05T08:22:24.545Z,1362.00
2023-05-05T08:23:24.605Z,1377.00
2023-05-05T08:24:24.516Z,1384.00
2023-05-05T08:25:25.566Z,1393.00
2023-05-05T08:26:23.583Z,1406.00
2023-05-05T08:27:23.486Z,1428.00
2023-05-05T08:28:24.490Z,1450.00
2023-05-05T08:29:23.526Z,1458.00
2023-05-05T08:30:23.572Z,1475.00
2023-05-05T08:31:24.492Z,1488.00
2023-05-05T08:32:24.507Z,1512.00
2023-05-05T08:33:24.612Z,1526.00
2023-05-05T08:34:23.720Z,1560.00
2023-05-05T08:35:24.629Z,1573.00
2023-05-05T08:36:23.699Z,1574.00
2023-05-05T08:37:23.792Z,1590.00
2023-05-05T08:38:23.885Z,1598.00
2023-05-05T08:39:24.863Z,1619.00
2023-05-05T08:40:24.891Z,1630.00
2023-05-05T08:41:23.952Z,1666.00
2023-05-05T08:42:36.087Z,1696.00
2023-05-05T08:43:25.441Z,1702.00
2023-05-05T08:44:24.995Z,1710.00
2023-05-05T08:45:24.992Z,1561.00
2023-05-05T08:46:24.005Z,1383.00
2023-05-05T08:47:25.004Z,1226.00
2023-05-05T08:48:24.977Z,1227.00
2023-05-05T08:49:24.126Z,1224.00
2023-05-05T08:50:24.941Z,1238.00
2023-05-05T08:51:23.997Z,1021.00
2023-05-05T08:52:24.034Z,988.00
2023-05-05T08:53:23.934Z,934.00
2023-05-05T08:54:24.919Z,899.00
2023-05-05T08:55:24.009Z,857.00
2023-05-05T08:56:23.969Z,758.00
2023-05-05T08:57:23.914Z,792.00
2023-05-05T08:58:25.246Z,840.00
2023-05-05T08:59:24.926Z,843.00
2023-05-05T09:00:24.994Z,857.00
2023-05-05T09:01:25.064Z,864.00
2023-05-05T09:02:24.070Z,854.00
2023-05-05T09:03:24.005Z,800.00
2023-05-05T09:04:25.008Z,801.00
2023-05-05T09:05:24.148Z,842.00
2023-05-05T09:06:24.128Z,848.00
2023-05-05T09:07:24.088Z,889.00
2023-05-05T09:08:25.252Z,894.00
2023-05-05T09:09:24.296Z,891.00
2023-05-05T09:10:24.428Z,890.00
2023-05-05T09:11:25.373Z,847.00
2023-05-05T09:12:24.380Z,846.00
2023-05-05T09:13:25.528Z,851.00
2023-05-05T09:14:24.517Z,850.00
2023-05-05T09:15:24.504Z,776.00
2023-05-05T09:16:24.631Z,803.00
2023-05-05T09:17:24.623Z,827.00
2023-05-05T09:18:24.705Z,825.00
2023-05-05T09:19:24.703Z,832.00
2023-05-05T09:20:24.764Z,823.00
2023-05-05T09:21:24.821Z,832.00
2023-05-05T09:22:25.797Z,834.00
2023-05-05T09:23:24.854Z,830.00
2023-05-05T09:24:25.852Z,830.00
2023-05-05T09:25:24.843Z,845.00
2023-05-05T09:26:25.827Z,861.00
2023-05-05T09:27:25.839Z,868.00
2023-05-05T09:28:24.930Z,874.00
2023-05-05T09:29:25.857Z,883.00
2023-05-05T09:30:24.961Z,885.00
2023-05-05T09:31:24.972Z,890.00
2023-05-05T09:32:26.587Z,910.00
2023-05-05T09:33:26.189Z,920.00
2023-05-05T09:34:26.154Z,952.00
2023-05-05T09:35:25.247Z,963.00
2023-05-05T09:36:25.265Z,960.00
2023-05-05T09:37:25.279Z,948.00
2023-05-05T09:38:26.334Z,953.00
2023-05-05T09:39:26.230Z,969.00
2023-05-05T09:40:25.205Z,979.00
2023-05-05T09:41:25.321Z,975.00
2023-05-05T09:42:25.292Z,979.00
2023-05-05T09:43:26.365Z,1001.00
2023-05-05T09:44:25.361Z,994.00
2023-05-05T09:45:26.363Z,995.00
2023-05-05T09:46:26.452Z,1000.00
2023-05-05T09:47:29.947Z,1021.00
2023-05-05T09:48:25.419Z,888.00
2023-05-05T09:49:25.606Z,812.00
2023-05-05T09:50:25.355Z,912.00
2023-05-05T09:51:25.293Z,1006.00
2023-05-05T09:52:26.337Z,1013.00
2023-05-05T09:53:25.559Z,1008.00
2023-05-05T09:54:25.475Z,924.00
2023-05-05T09:55:25.330Z,805.00
2023-05-05T09:56:25.255Z,810.00
2023-05-05T09:57:25.314Z,804.00
2023-05-05T09:58:25.342Z,811.00
2023-05-05T09:59:26.231Z,810.00
2023-05-05T10:00:25.293Z,815.00
2023-05-05T10:01:25.268Z,813.00
2023-05-05T10:02:26.270Z,805.00
2023-05-05T10:03:25.321Z,807.00
2023-05-05T10:04:26.357Z,809.00
2023-05-05T10:05:25.323Z,808.00
2023-05-05T10:06:25.304Z,804.00
2023-05-05T10:07:26.375Z,799.00
2023-05-05T10:08:26.434Z,791.00
2023-05-05T10:09:25.505Z,790.00
2023-05-05T10:10:28.576Z,787.00
2023-05-05T10:11:26.482Z,790.00
2023-05-05T10:12:25.463Z,788.00
2023-05-05T10:13:25.456Z,788.00
2023-05-05T10:14:25.483Z,779.00
2023-05-05T10:15:26.448Z,779.00
2023-05-05T10:16:26.803Z,782.00
2023-05-05T10:17:25.464Z,784.00
2023-05-05T10:18:25.422Z,786.00
2023-05-05T10:19:26.425Z,786.00
2023-05-05T10:20:25.356Z,790.00
2023-05-05T10:21:25.446Z,794.00
2023-05-05T10:22:25.357Z,884.00
2023-05-05T10:23:25.364Z,839.00
2023-05-05T10:24:25.376Z,831.00
2023-05-05T10:25:25.530Z,821.00
2023-05-05T10:26:25.370Z,821.00
2023-05-05T10:27:25.348Z,821.00
2023-05-05T10:28:25.340Z,783.00
2023-05-05T10:29:25.360Z,802.00
2023-05-05T10:30:25.366Z,808.00
2023-05-05T10:31:26.752Z,855.00
2023-05-05T10:32:50.187Z,835.00
2023-05-05T10:33:32.231Z,842.00
2023-05-05T10:34:26.557Z,870.00
2023-05-05T10:35:26.433Z,849.00
2023-05-05T10:36:25.443Z,846.00
2023-05-05T10:37:25.465Z,926.00
2023-05-05T10:38:26.838Z,842.00
2023-05-05T10:39:25.463Z,837.00
2023-05-05T10:40:26.401Z,830.00
2023-05-05T10:41:25.583Z,841.00
2023-05-05T10:42:25.485Z,834.00
2023-05-05T10:43:26.372Z,835.00
2023-05-05T10:44:26.533Z,829.00
2023-05-05T10:45:25.528Z,816.00
2023-05-05T10:46:26.472Z,823.00
2023-05-05T10:47:25.471Z,830.00
2023-05-05T10:48:25.383Z,835.00
2023-05-05T10:49:26.420Z,839.00
2023-05-05T10:50:26.402Z,860.00
2023-05-05T10:51:38.493Z,859.00
2023-05-05T10:52:26.375Z,875.00
2023-05-05T10:53:25.348Z,875.00
2023-05-05T10:54:25.442Z,874.00
2023-05-05T10:55:25.290Z,860.00
2023-05-05T10:56:26.270Z,855.00
2023-05-05T10:57:25.448Z,859.00
2023-05-05T10:58:25.318Z,857.00
2023-05-05T10:59:25.311Z,859.00
2023-05-05T11:00:25.308Z,863.00
2023-05-05T11:01:25.345Z,857.00
2023-05-05T11:02:26.345Z,868.00
2023-05-05T11:03:25.405Z,873.00
2023-05-05T11:04:25.277Z,877.00
2023-05-05T11:05:25.226Z,885.00
2023-05-05T11:06:26.208Z,893.00
2023-05-05T11:07:26.206Z,902.00
2023-05-05T11:08:25.253Z,903.00
2023-05-05T11:09:25.457Z,904.00
2023-05-05T11:10:26.303Z,909.00
2023-05-05T11:11:25.308Z,908.00
2023-05-05T11:12:26.352Z,913.00
2023-05-05T11:13:25.548Z,916.00
2023-05-05T11:14:26.321Z,907.00
2023-05-05T11:15:25.336Z,905.00
2023-05-05T11:16:26.454Z,905.00
2023-05-05T11:17:25.358Z,899.00
2023-05-05T11:18:26.378Z,890.00
2023-05-05T11:19:25.392Z,889.00
2023-05-05T11:20:25.332Z,894.00
2023-05-05T11:21:25.348Z,895.00
2023-05-05T11:22:26.381Z,898.00
2023-05-05T11:23:25.445Z,900.00
2023-05-05T11:24:26.531Z,896.00
2023-05-05T11:25:26.479Z,891.00
2023-05-05T11:26:26.438Z,883.00
2023-05-05T11:27:26.440Z,881.00
2023-05-05T11:28:26.569Z,884.00
2023-05-05T11:29:26.659Z,886.00
2023-05-05T11:30:25.541Z,903.00
2023-05-05T11:31:26.637Z,915.00
2023-05-05T11:32:25.568Z,921.00
2023-05-05T11:33:25.582Z,917.00
2023-05-05T11:34:26.626Z,909.00
2023-05-05T11:35:26.625Z,910.00
2023-05-05T11:36:26.737Z,932.00
2023-05-05T11:37:25.821Z,1004.00
2023-05-05T11:38:25.719Z,986.00
2023-05-05T11:39:25.731Z,984.00
2023-05-05T11:40:26.770Z,982.00
2023-05-05T11:41:25.865Z,984.00
2023-05-05T11:42:26.873Z,985.00
2023-05-05T11:43:25.909Z,986.00
2023-05-05T11:44:25.992Z,988.00
2023-05-05T11:45:26.055Z,987.00
2023-05-05T11:46:26.117Z,990.00
2023-05-05T11:47:27.175Z,986.00
2023-05-05T11:48:26.153Z,985.00
2023-05-05T11:49:27.217Z,992.00
2023-05-05T11:50:26.217Z,993.00
2023-05-05T11:51:27.268Z,991.00
2023-05-05T11:52:26.320Z,991.00
2023-05-05T11:53:27.479Z,994.00
2023-05-05T11:54:26.429Z,993.00
2023-05-05T11:55:26.493Z,993.00
2023-05-05T11:56:26.544Z,993.00
2023-05-05T11:57:26.643Z,991.00
2023-05-05T11:58:26.789Z,993.00
2023-05-05T11:59:26.763Z,994.00
2023-05-05T12:00:27.829Z,993.00
2023-05-05T12:01:26.876Z,991.00
2023-05-05T12:02:26.925Z,993.00
2023-05-05T12:03:27.247Z,995.00
2023-05-05T12:04:27.073Z,999.00
2023-05-05T12:05:27.026Z,1001.00
2023-05-05T12:06:27.146Z,1006.00
2023-05-05T12:07:27.120Z,1009.00
2023-05-05T12:08:27.260Z,1016.00
2023-05-05T12:09:27.268Z,1017.00
2023-05-05T12:10:27.387Z,1013.00
2023-05-05T12:11:27.364Z,1010.00
2023-05-05T12:12:28.477Z,1012.00
2023-05-05T12:13:27.513Z,1014.00
2023-05-05T12:14:27.506Z,1016.00
2023-05-05T12:15:28.648Z,1014.00
2023-05-05T12:16:27.785Z,1013.00
2023-05-05T12:17:28.685Z,1014.00
2023-05-05T12:18:27.731Z,1014.00
2023-05-05T12:19:28.785Z,1011.00
2023-05-05T12:20:28.850Z,1014.00
2023-05-05T12:21:28.960Z,1011.00
2023-05-05T12:22:28.002Z,1012.00
2023-05-05T12:23:28.034Z,1012.00
2023-05-05T12:24:29.057Z,1012.00
2023-05-05T12:25:29.198Z,1010.00